createdAt,value
2018-11-14T00:00:48.914Z,8.43
2018-11-14T00:03:15.958Z,11.00
2018-11-14T00:05:43.033Z,8.67
2018-11-14T00:08:10.403Z,13.47
2018-11-14T00:10:37.411Z,8.43
2018-11-14T00:13:04.610Z,11.43
2018-11-14T00:15:32.071Z,10.40
2018-11-14T00:17:59.129Z,7.00
2018-11-14T00:20:26.147Z,12.63
2018-11-14T00:22:53.394Z,8.80
2018-11-14T00:25:20.432Z,7.77
2018-11-14T00:27:47.582Z,10.40
2018-11-14T00:30:19.314Z,8.93
2018-11-14T00:32:45.913Z,10.80
2018-11-14T00:35:13.340Z,11.33
2018-11-14T00:37:40.610Z,10.03
2018-11-14T00:40:09.068Z,9.17
2018-11-14T00:42:36.053Z,10.00
2018-11-14T00:45:03.503Z,8.67
2018-11-14T00:47:30.599Z,10.97
2018-11-14T00:49:57.612Z,16.63
2018-11-14T00:52:25.090Z,10.10
2018-11-14T00:54:52.109Z,6.47
2018-11-14T00:57:19.172Z,13.23
2018-11-14T00:59:46.363Z,8.20
2018-11-14T01:02:13.411Z,11.50
2018-11-14T01:04:40.402Z,16.83
2018-11-14T01:07:07.469Z,14.00
2018-11-14T01:09:34.458Z,9.67
2018-11-14T01:12:01.476Z,13.80
2018-11-14T01:14:28.576Z,16.03
2018-11-14T01:16:55.766Z,13.07
2018-11-14T01:19:22.772Z,11.90
2018-11-14T01:21:50.080Z,11.87
2018-11-14T01:24:17.110Z,10.73
2018-11-14T01:26:44.115Z,12.00
2018-11-14T01:29:11.642Z,12.53
2018-11-14T01:31:38.696Z,11.27
2018-11-14T01:34:05.790Z,15.10
2018-11-14T01:36:32.886Z,13.33
2018-11-14T01:38:59.884Z,15.83
2018-11-14T01:41:27.117Z,12.17
2018-11-14T01:43:54.350Z,19.60
2018-11-14T01:46:21.463Z,17.17
2018-11-14T01:48:48.498Z,13.03
2018-11-14T01:51:15.511Z,12.37
2018-11-14T01:53:42.569Z,15.53
2018-11-14T01:56:09.637Z,17.40
2018-11-14T01:58:36.851Z,18.67
2018-11-14T02:01:04.099Z,17.23
2018-11-14T02:03:31.103Z,12.73
2018-11-14T02:05:58.124Z,10.83
2018-11-14T02:08:25.131Z,22.13
2018-11-14T02:10:52.147Z,19.33
2018-11-14T02:13:25.939Z,13.90
2018-11-14T02:15:53.041Z,15.97
2018-11-14T02:18:20.208Z,16.30
2018-11-14T02:20:47.284Z,20.00
2018-11-14T02:23:14.429Z,17.50
2018-11-14T02:25:41.479Z,12.00
2018-11-14T02:28:08.951Z,13.37
2018-11-14T02:30:35.968Z,13.10
2018-11-14T02:33:03.039Z,13.97
2018-11-14T02:35:30.304Z,16.23
2018-11-14T02:37:57.491Z,18.37
2018-11-14T02:40:24.481Z,18.07
2018-11-14T02:42:51.546Z,14.83
2018-11-14T02:45:18.573Z,20.73
2018-11-14T02:47:45.598Z,24.87
2018-11-14T02:50:13.817Z,13.33
2018-11-14T02:52:40.831Z,21.47
2018-11-14T02:55:08.998Z,21.03
2018-11-14T02:57:36.217Z,23.33
2018-11-14T03:00:03.493Z,15.10
2018-11-14T03:02:30.565Z,21.40
2018-11-14T03:04:57.937Z,17.93
2018-11-14T03:07:24.957Z,18.90
2018-11-14T03:09:52.051Z,11.87
2018-11-14T03:12:19.161Z,15.03
2018-11-14T03:14:46.163Z,22.23
2018-11-14T03:17:13.423Z,13.50
2018-11-14T03:19:40.689Z,19.03
2018-11-14T03:22:07.783Z,18.87
2018-11-14T03:24:34.852Z,20.80
2018-11-14T03:27:02.181Z,16.37
2018-11-14T03:29:29.196Z,21.47
2018-11-14T03:31:56.200Z,10.87
2018-11-14T03:34:23.220Z,19.87
2018-11-14T03:36:50.250Z,15.13
2018-11-14T03:39:17.297Z,24.43
2018-11-14T03:41:44.415Z,15.33
2018-11-14T03:44:11.458Z,16.10
2018-11-14T03:46:38.483Z,26.37
2018-11-14T03:49:05.520Z,15.70
2018-11-14T03:51:32.516Z,25.63
2018-11-14T03:53:59.515Z,11.97
2018-11-14T03:56:26.748Z,12.57
2018-11-14T03:58:53.755Z,19.67
2018-11-14T04:01:20.784Z,17.93
2018-11-14T04:03:47.933Z,19.13
2018-11-14T04:06:14.991Z,28.83
2018-11-14T04:08:42.000Z,22.70
2018-11-14T04:11:09.451Z,16.47
2018-11-14T04:13:36.615Z,19.87
2018-11-14T04:16:04.067Z,23.63
2018-11-14T04:18:31.078Z,27.47
2018-11-14T04:20:58.279Z,25.63
2018-11-14T04:23:25.311Z,27.73
2018-11-14T04:25:52.338Z,30.70
2018-11-14T04:28:19.344Z,24.50
2018-11-14T04:30:46.358Z,27.57
2018-11-14T04:33:13.521Z,22.40
2018-11-14T04:35:40.526Z,19.77
2018-11-14T04:38:07.563Z,29.73
2018-11-14T04:40:35.032Z,35.43
2018-11-14T04:43:02.061Z,21.40
2018-11-14T04:45:29.088Z,32.20
2018-11-14T04:47:56.166Z,22.23
2018-11-14T04:50:24.384Z,29.93
2018-11-14T04:52:51.723Z,21.47
2018-11-14T04:55:19.827Z,18.97
2018-11-14T04:57:47.267Z,25.57
2018-11-14T05:00:16.560Z,27.07
2018-11-14T05:02:44.629Z,22.50
2018-11-14T05:05:13.220Z,18.93
2018-11-14T05:07:40.451Z,27.00
2018-11-14T05:10:09.568Z,16.90
2018-11-14T05:12:36.666Z,23.30
2018-11-14T05:15:03.713Z,26.30
2018-11-14T05:17:30.979Z,23.30
2018-11-14T05:19:58.010Z,26.67
2018-11-14T05:22:25.172Z,20.80
2018-11-14T05:24:52.328Z,20.97
2018-11-14T05:27:19.364Z,17.17
2018-11-14T05:29:46.388Z,21.53
2018-11-14T05:32:13.455Z,21.83
2018-11-14T05:34:40.489Z,18.97
2018-11-14T05:37:07.521Z,26.07
2018-11-14T05:39:35.059Z,38.53
2018-11-14T05:42:02.085Z,22.93
2018-11-14T05:44:29.116Z,17.10
2018-11-14T05:46:56.168Z,22.80
2018-11-14T05:49:23.259Z,26.10
2018-11-14T05:51:50.430Z,23.77
2018-11-14T05:54:17.706Z,34.23
2018-11-14T05:56:44.717Z,22.47
2018-11-14T05:59:11.739Z,19.43
2018-11-14T06:01:38.823Z,29.07
2018-11-14T06:04:06.010Z,28.40
2018-11-14T06:06:33.000Z,34.27
2018-11-14T06:09:00.187Z,25.43
2018-11-14T06:11:27.177Z,27.37
2018-11-14T06:13:54.276Z,24.23
2018-11-14T06:16:21.462Z,24.60
2018-11-14T06:18:48.471Z,20.70
2018-11-14T06:21:15.487Z,25.97
2018-11-14T06:23:42.825Z,33.33
2018-11-14T06:26:09.775Z,24.87
2018-11-14T06:28:36.970Z,26.00
2018-11-14T06:31:04.408Z,21.20
2018-11-14T06:33:31.480Z,26.20
2018-11-14T06:35:58.581Z,40.83
2018-11-14T06:38:25.668Z,21.33
2018-11-14T06:40:52.669Z,35.63
2018-11-14T06:43:19.677Z,26.17
2018-11-14T06:45:47.027Z,32.50
2018-11-14T06:48:14.053Z,32.03
2018-11-14T06:50:41.068Z,23.03
2018-11-14T06:53:08.389Z,21.47
2018-11-14T06:55:35.525Z,25.37
2018-11-14T06:58:02.536Z,27.87
2018-11-14T07:00:32.658Z,25.83
2018-11-14T07:03:00.600Z,18.43
2018-11-14T07:05:27.697Z,23.00
2018-11-14T07:07:54.752Z,19.70
2018-11-14T07:10:23.100Z,19.07
2018-11-14T07:12:50.179Z,18.07
2018-11-14T07:15:19.747Z,18.20
2018-11-14T07:17:47.578Z,20.23
2018-11-14T07:20:17.311Z,23.77
2018-11-14T07:22:44.921Z,17.20
2018-11-14T07:25:12.876Z,14.90
2018-11-14T07:27:40.211Z,12.20
2018-11-14T07:30:10.677Z,13.40
2018-11-14T07:32:39.411Z,24.90
2018-11-14T07:35:06.500Z,17.57
2018-11-14T07:37:33.592Z,14.93
2018-11-14T07:40:00.733Z,18.62
2018-11-14T07:42:27.758Z,9.95
2018-11-14T07:44:54.852Z,15.80
2018-11-14T07:47:21.907Z,14.68
2018-11-14T07:49:48.943Z,11.50
2018-11-14T07:52:16.443Z,20.70
2018-11-14T07:54:43.502Z,17.25
2018-11-14T07:57:10.480Z,12.30
2018-11-14T07:59:37.823Z,11.90
2018-11-14T08:02:05.425Z,16.02
2018-11-14T08:04:32.424Z,16.70
2018-11-14T08:06:59.498Z,14.07
2018-11-14T08:09:26.531Z,14.85
2018-11-14T08:11:53.560Z,21.00
2018-11-14T08:14:20.726Z,17.92
2018-11-14T08:16:47.706Z,16.85
2018-11-14T08:19:14.724Z,17.57
2018-11-14T08:21:41.952Z,14.75
2018-11-14T08:24:09.076Z,13.45
2018-11-14T08:26:36.577Z,14.38
2018-11-14T08:29:04.333Z,14.15
2018-11-14T08:31:31.356Z,14.13
2018-11-14T08:33:58.415Z,13.40
2018-11-14T08:36:25.624Z,13.15
2018-11-14T08:38:52.652Z,13.50
2018-11-14T08:41:19.662Z,13.40
2018-11-14T08:43:46.794Z,13.15
2018-11-14T08:46:13.899Z,13.28
2018-11-14T08:48:41.031Z,14.68
2018-11-14T08:51:08.065Z,13.60
2018-11-14T08:53:35.054Z,13.55
2018-11-14T08:56:02.163Z,10.23
2018-11-14T08:58:29.491Z,10.78
2018-11-14T09:00:56.510Z,7.70
2018-11-14T09:03:23.602Z,18.17
2018-11-14T09:05:51.283Z,12.58
2018-11-14T09:08:18.404Z,12.73
2018-11-14T09:10:45.578Z,9.43
2018-11-14T09:13:14.305Z,17.12
2018-11-14T09:15:41.519Z,12.28
2018-11-14T09:18:08.577Z,18.20
2018-11-14T09:20:35.677Z,17.80
2018-11-14T09:23:02.720Z,14.23
2018-11-14T09:25:30.759Z,15.45
2018-11-14T09:27:59.388Z,16.15
2018-11-14T09:30:26.775Z,17.92
2018-11-14T09:32:53.876Z,17.35
2018-11-14T09:35:21.703Z,20.70
2018-11-14T09:37:48.938Z,14.85
2018-11-14T09:40:17.334Z,17.65
2018-11-14T09:42:44.744Z,17.48
2018-11-14T09:45:15.139Z,16.57
2018-11-14T09:47:42.236Z,15.93
2018-11-14T09:50:11.842Z,18.17
2018-11-14T09:52:39.040Z,25.62
2018-11-14T09:55:07.596Z,30.62
2018-11-14T09:57:34.791Z,24.30
2018-11-14T10:00:01.840Z,15.03
2018-11-14T10:02:28.907Z,10.53
2018-11-14T10:04:56.172Z,18.25
2018-11-14T10:07:23.228Z,13.45
2018-11-14T10:09:50.487Z,12.05
2018-11-14T10:12:17.639Z,18.42
2018-11-14T10:14:44.719Z,18.17
2018-11-14T10:17:11.795Z,14.93
2018-11-14T10:19:38.939Z,14.15
2018-11-14T10:22:06.028Z,13.83
2018-11-14T10:24:33.067Z,18.45
2018-11-14T10:27:00.227Z,16.57
2018-11-14T10:29:27.629Z,17.40
2018-11-14T10:31:54.647Z,14.68
2018-11-14T10:34:21.704Z,17.45
2018-11-14T10:36:48.773Z,14.07
2018-11-14T10:39:15.831Z,16.48
2018-11-14T10:41:42.992Z,19.62
2018-11-14T10:44:10.023Z,14.93
2018-11-14T10:46:37.039Z,22.10
2018-11-14T10:49:04.499Z,18.15
2018-11-14T10:51:31.545Z,25.77
2018-11-14T10:53:58.991Z,11.38
2018-11-14T10:56:26.023Z,16.80
2018-11-14T10:58:53.113Z,13.58
2018-11-14T11:01:26.126Z,15.68
2018-11-14T11:03:58.913Z,15.18
2018-11-14T11:07:30.174Z,21.30
2018-11-14T11:10:02.847Z,14.25
2018-11-14T11:12:35.610Z,13.22
2018-11-14T11:15:08.445Z,20.32
2018-11-14T11:17:41.714Z,14.93
2018-11-14T11:20:08.860Z,14.15
2018-11-14T11:22:36.280Z,17.80
2018-11-14T11:25:04.399Z,19.17
2018-11-14T11:27:31.436Z,15.60
2018-11-14T11:29:58.761Z,20.12
2018-11-14T11:32:26.028Z,16.27
2018-11-14T11:34:53.035Z,11.38
2018-11-14T11:37:20.083Z,21.80
2018-11-14T11:39:47.361Z,15.63
2018-11-14T11:42:14.439Z,13.80
2018-11-14T11:44:41.487Z,14.13
2018-11-14T11:47:08.412Z,15.20
2018-11-14T11:49:35.494Z,18.85
2018-11-14T11:52:02.659Z,17.42
2018-11-14T11:54:30.688Z,12.37
2018-11-14T11:56:57.763Z,15.15
2018-11-14T11:59:24.841Z,17.73
2018-11-14T12:01:51.839Z,13.85
2018-11-14T12:04:18.911Z,17.75
2018-11-14T12:06:45.999Z,13.35
2018-11-14T12:09:13.274Z,15.43
2018-11-14T12:11:40.283Z,19.95
2018-11-14T12:14:07.599Z,15.00
2018-11-14T12:16:34.931Z,13.05
2018-11-14T12:19:02.006Z,17.25
2018-11-14T12:21:29.112Z,15.83
2018-11-14T12:23:56.168Z,14.68
2018-11-14T12:26:23.245Z,13.55
2018-11-14T12:28:50.311Z,17.85
2018-11-14T12:31:18.282Z,13.68
2018-11-14T12:33:45.281Z,13.45
2018-11-14T12:36:12.413Z,17.00
2018-11-14T12:38:39.512Z,11.55
2018-11-14T12:41:06.502Z,10.00
2018-11-14T12:43:33.554Z,8.65
2018-11-14T12:46:00.924Z,13.85
2018-11-14T12:48:27.950Z,13.83
2018-11-14T12:50:55.042Z,19.12
2018-11-14T12:53:22.210Z,21.40
2018-11-14T12:55:49.319Z,11.53
2018-11-14T12:58:16.325Z,13.78
2018-11-14T13:00:43.399Z,15.78
2018-11-14T13:03:11.040Z,24.30
2018-11-14T13:05:38.040Z,10.90
2018-11-14T13:08:05.088Z,16.15
2018-11-14T13:10:32.159Z,14.43
2018-11-14T13:12:59.195Z,14.73
2018-11-14T13:15:26.267Z,21.20
2018-11-14T13:17:53.311Z,19.70
2018-11-14T13:20:21.881Z,18.23
2018-11-14T13:22:48.946Z,21.12
2018-11-14T13:25:16.276Z,11.43
2018-11-14T13:27:44.451Z,19.92
2018-11-14T13:30:14.793Z,18.02
2018-11-14T13:32:42.521Z,11.60
2018-11-14T13:35:11.187Z,20.12
2018-11-14T13:37:38.334Z,18.62
2018-11-14T13:40:06.078Z,19.57
2018-11-14T13:42:33.103Z,26.33
2018-11-14T13:45:00.900Z,26.23
2018-11-14T13:47:28.242Z,21.12
2018-11-14T13:49:55.596Z,20.55
2018-11-14T13:52:22.482Z,15.15
2018-11-14T13:54:49.492Z,20.52
2018-11-14T13:57:16.498Z,20.20
2018-11-14T13:59:43.566Z,15.13
2018-11-14T14:02:10.627Z,23.85
2018-11-14T14:04:37.646Z,15.13
2018-11-14T14:07:04.772Z,22.45
2018-11-14T14:09:31.834Z,16.77
2018-11-14T14:11:58.816Z,18.82
2018-11-14T14:14:26.096Z,19.42
2018-11-14T14:16:53.220Z,15.93
2018-11-14T14:19:20.230Z,17.85
2018-11-14T14:21:47.275Z,13.95
2018-11-14T14:24:14.359Z,18.07
2018-11-14T14:26:41.392Z,15.25
2018-11-14T14:29:08.837Z,18.35
2018-11-14T14:31:36.507Z,15.27
2018-11-14T14:34:05.255Z,22.87
2018-11-14T14:36:32.745Z,20.88
2018-11-14T14:38:59.787Z,13.10
2018-11-14T14:41:26.788Z,26.33
2018-11-14T14:43:54.080Z,20.87
2018-11-14T14:46:21.139Z,21.47
2018-11-14T14:48:48.281Z,16.80
2018-11-14T14:51:15.309Z,20.23
2018-11-14T14:53:42.348Z,20.63
2018-11-14T14:56:09.407Z,20.97
2018-11-14T14:58:36.432Z,13.67
2018-11-14T15:01:03.999Z,16.77
2018-11-14T15:03:31.249Z,17.50
2018-11-14T15:05:58.184Z,19.93
2018-11-14T15:08:25.228Z,20.37
2018-11-14T15:10:54.087Z,20.87
2018-11-14T15:13:21.635Z,15.47
2018-11-14T15:15:48.717Z,17.30
2018-11-14T15:18:15.761Z,28.67
2018-11-14T15:20:42.844Z,27.50
2018-11-14T15:23:09.992Z,26.03
2018-11-14T15:25:38.144Z,18.83
2018-11-14T15:28:12.132Z,24.57
2018-11-14T15:30:39.163Z,22.83
2018-11-14T15:33:08.354Z,27.13
2018-11-14T15:35:37.040Z,26.70
2018-11-14T15:38:08.729Z,25.17
2018-11-14T15:40:36.885Z,25.90
2018-11-14T15:43:04.620Z,29.27
2018-11-14T15:45:31.698Z,34.40
2018-11-14T15:47:59.119Z,33.53
2018-11-14T15:50:27.504Z,22.33
2018-11-14T15:52:55.640Z,25.20
2018-11-14T15:55:23.094Z,32.57
2018-11-14T15:57:50.415Z,31.87
2018-11-14T16:00:18.833Z,28.63
2018-11-14T16:02:45.947Z,27.23
2018-11-14T16:05:14.720Z,33.43
2018-11-14T16:07:42.894Z,32.23
2018-11-14T16:10:11.651Z,37.97
2018-11-14T16:12:39.864Z,33.07
2018-11-14T16:15:08.007Z,38.57
2018-11-14T16:17:35.278Z,38.63
2018-11-14T16:20:02.381Z,35.43
2018-11-14T16:22:29.447Z,37.33
2018-11-14T16:24:58.308Z,34.60
2018-11-14T16:27:25.404Z,31.03
2018-11-14T16:29:53.162Z,41.80
2018-11-14T16:32:20.475Z,31.67
2018-11-14T16:34:47.504Z,40.17
2018-11-14T16:37:15.464Z,38.10
2018-11-14T16:39:45.115Z,43.97
2018-11-14T16:42:14.412Z,42.03
2018-11-14T16:44:42.346Z,36.70
2018-11-14T16:47:09.307Z,30.30
2018-11-14T16:49:36.674Z,39.03
2018-11-14T16:52:04.227Z,29.93
2018-11-14T16:54:31.301Z,38.83
2018-11-14T16:56:58.433Z,26.10
2018-11-14T16:59:25.791Z,34.57
2018-11-14T17:01:52.961Z,36.30
2018-11-14T17:04:20.045Z,33.47
2018-11-14T17:06:47.109Z,29.53
2018-11-14T17:09:14.849Z,31.13
2018-11-14T17:11:42.542Z,36.13
2018-11-14T17:14:10.160Z,41.63
2018-11-14T17:16:37.612Z,43.27
2018-11-14T17:19:05.280Z,40.40
2018-11-14T17:21:32.697Z,34.87
2018-11-14T17:23:59.785Z,33.13
2018-11-14T17:26:27.623Z,39.83
2018-11-14T17:28:55.520Z,38.07
2018-11-14T17:31:22.569Z,36.90
2018-11-14T17:33:49.929Z,31.50
2018-11-14T17:36:17.772Z,26.43
2018-11-14T17:38:45.273Z,30.87
2018-11-14T17:41:12.359Z,32.47
2018-11-14T17:43:39.575Z,29.77
2018-11-14T17:46:06.613Z,26.00
2018-11-14T17:48:35.117Z,33.27
2018-11-14T17:51:02.223Z,32.53
2018-11-14T17:53:29.637Z,37.27
2018-11-14T17:55:56.696Z,29.67
2018-11-14T17:58:25.179Z,27.97
2018-11-14T18:00:52.216Z,39.10
2018-11-14T18:03:19.638Z,29.73
2018-11-14T18:05:46.800Z,31.73
2018-11-14T18:08:13.852Z,41.43
2018-11-14T18:10:41.768Z,45.77
2018-11-14T18:13:09.075Z,32.77
2018-11-14T18:15:37.055Z,39.40
2018-11-14T18:18:04.152Z,33.43
2018-11-14T18:20:32.476Z,40.30
2018-11-14T18:23:01.033Z,40.13
2018-11-14T18:25:28.170Z,39.57
2018-11-14T18:27:55.350Z,41.20
2018-11-14T18:30:25.440Z,37.80
2018-11-14T18:32:54.061Z,36.70
2018-11-14T18:35:22.655Z,32.77
2018-11-14T18:37:52.830Z,36.70
2018-11-14T18:40:22.291Z,30.50
2018-11-14T18:42:50.488Z,27.40
2018-11-14T18:47:59.011Z,41.63
2018-11-14T18:50:27.371Z,37.37
2018-11-14T18:52:55.596Z,36.30
2018-11-14T18:55:24.987Z,35.33
2018-11-14T18:57:53.234Z,45.83
2018-11-14T19:00:29.734Z,37.10
2018-11-14T19:02:58.093Z,31.07
2018-11-14T19:05:26.132Z,31.73
2018-11-14T19:07:54.226Z,41.83
2018-11-14T19:10:23.966Z,36.00
2018-11-14T19:12:52.520Z,29.13
2018-11-14T19:15:22.743Z,40.93
2018-11-14T19:17:51.534Z,35.47
2018-11-14T19:20:22.579Z,38.07
2018-11-14T19:22:51.153Z,36.57
2018-11-14T19:25:20.503Z,31.47
2018-11-14T19:27:49.033Z,31.83
2018-11-14T19:30:19.356Z,30.97
2018-11-14T19:32:48.688Z,36.67
2018-11-14T19:35:18.110Z,42.77
2018-11-14T19:37:47.468Z,33.80
2018-11-14T19:40:17.712Z,31.10
2018-11-14T19:42:46.818Z,31.87
2018-11-14T19:45:17.259Z,38.90
2018-11-14T19:47:45.314Z,37.17
2018-11-14T19:50:14.933Z,27.50
2018-11-14T19:52:43.267Z,35.00
2018-11-14T19:55:12.351Z,31.90
2018-11-14T19:57:41.305Z,34.43
2018-11-14T20:00:12.891Z,31.07
2018-11-14T20:02:42.112Z,34.03
2018-11-14T20:05:11.255Z,37.00
2018-11-14T20:07:39.422Z,40.03
2018-11-14T20:10:10.076Z,34.30
2018-11-14T20:12:38.144Z,34.17
2018-11-14T20:15:07.728Z,30.47
2018-11-14T20:17:35.811Z,33.37
2018-11-14T20:20:05.347Z,37.70
2018-11-14T20:22:33.389Z,33.17
2018-11-14T20:25:01.476Z,39.27
2018-11-14T20:27:29.529Z,38.47
2018-11-14T20:29:57.604Z,35.07
2018-11-14T20:32:26.017Z,35.27
2018-11-14T20:34:55.220Z,28.17
2018-11-14T20:37:23.357Z,35.80
2018-11-14T20:39:51.407Z,35.27
2018-11-14T20:42:19.491Z,26.30
2018-11-14T20:44:47.940Z,32.10
2018-11-14T20:47:16.089Z,38.90
2018-11-14T20:49:44.171Z,29.50
2018-11-14T20:52:12.627Z,29.60
2018-11-14T20:54:40.763Z,32.07
2018-11-14T20:57:09.844Z,34.00
2018-11-14T20:59:38.129Z,30.87
2018-11-14T21:02:07.131Z,29.57
2018-11-14T21:04:35.920Z,30.97
2018-11-14T21:07:05.451Z,38.73
2018-11-14T21:09:33.952Z,30.13
2018-11-14T21:12:02.492Z,35.47
2018-11-14T21:14:32.551Z,24.80
2018-11-14T21:17:01.039Z,26.57
2018-11-14T21:19:29.468Z,34.20
2018-11-14T21:21:58.415Z,33.77
2018-11-14T21:24:26.579Z,30.77
2018-11-14T21:26:54.607Z,27.00
2018-11-14T21:29:22.812Z,40.30
2018-11-14T21:31:50.835Z,29.47
2018-11-14T21:34:18.943Z,28.13
2018-11-14T21:36:47.438Z,33.23
2018-11-14T21:39:15.462Z,29.03
2018-11-14T21:41:44.096Z,25.97
2018-11-14T21:44:12.177Z,28.40
2018-11-14T21:46:40.369Z,32.43
2018-11-14T21:49:14.066Z,22.30
2018-11-14T21:51:42.173Z,36.10
2018-11-14T21:54:10.202Z,28.73
2018-11-14T21:56:38.279Z,28.37
2018-11-14T21:59:06.367Z,25.77
2018-11-14T22:01:34.378Z,33.83
2018-11-14T22:04:02.564Z,30.83
2018-11-14T22:06:30.594Z,35.67
2018-11-14T22:08:58.684Z,31.13
2018-11-14T22:11:26.755Z,32.00
2018-11-14T22:13:54.827Z,36.50
2018-11-14T22:16:22.880Z,37.43
2018-11-14T22:18:51.123Z,27.47
2018-11-14T22:21:19.214Z,26.53
2018-11-14T22:23:47.240Z,25.07
2018-11-14T22:26:15.530Z,29.30
2018-11-14T22:28:43.555Z,26.10
2018-11-14T22:31:11.600Z,29.70
2018-11-14T22:33:40.031Z,29.90
2018-11-14T22:36:08.064Z,36.87
2018-11-14T22:38:36.274Z,25.53
2018-11-14T22:41:04.866Z,32.60
2018-11-14T22:43:32.895Z,24.97
2018-11-14T22:46:00.932Z,25.80
2018-11-14T22:48:29.389Z,20.37
2018-11-14T22:50:57.440Z,25.73
2018-11-14T22:53:25.467Z,24.37
2018-11-14T22:55:53.590Z,24.83
2018-11-14T22:58:21.684Z,28.40
2018-11-14T23:00:49.757Z,35.43
2018-11-14T23:03:17.906Z,25.07
2018-11-14T23:05:46.074Z,32.03
2018-11-14T23:08:14.212Z,32.80
2018-11-14T23:10:42.339Z,21.50
2018-11-14T23:13:10.392Z,24.40
2018-11-14T23:15:38.486Z,21.13
2018-11-14T23:18:06.550Z,26.40
2018-11-14T23:20:34.631Z,24.17
2018-11-14T23:23:02.743Z,33.53
2018-11-14T23:25:30.770Z,23.07
2018-11-14T23:27:58.816Z,21.20
2018-11-14T23:30:27.411Z,16.63
2018-11-14T23:32:56.509Z,24.47
2018-11-14T23:35:29.800Z,23.63
2018-11-14T23:37:59.017Z,29.57
2018-11-14T23:40:27.288Z,22.57
2018-11-14T23:42:55.387Z,22.50
2018-11-14T23:45:24.296Z,22.10
2018-11-14T23:47:52.403Z,28.33
2018-11-14T23:50:23.684Z,19.27
2018-11-14T23:52:52.748Z,25.27
2018-11-14T23:55:21.635Z,20.93
2018-11-14T23:57:49.814Z,23.67
